Latest Coastal Weather Observations for Bellambi

IDN60701

Issued at 4:12 am EST Tuesday 28 June 2022 (issued every 10 minutes, with the page automatically refreshed every 10 minutes)

About coastal observations | Map of coastal stations | Coastal observations for NSW | Marine services | Other Formats
Station Details ID: 068228 Name: BELLAMBI AWS Lat: -34.37 Lon: 150.93 Height: 10.0 m
Data from the previous 72 hours. | See also: Recent months at Bellambi
Date/Time
EST
Wind Sea
Height
m
Swell Vis
km
Cloud Weather Temp
°C
Press
MSL
hPa
Rain since
9am
mm
Dir  Spd
kts
Gust
kts
Height
m
Period
s
Dir
28/04:00am SW 10 13 - - - - - Partly cloudy - 9.9 - 0.0
28/03:30am WSW 9 12 - - - - - Partly cloudy - 9.5 - 0.0
28/03:00am SW 11 16 - - - - - - - 9.6 - 0.0
28/02:30am SW 13 17 - - - - - Partly cloudy - 9.6 - 0.0
28/02:00am SW 12 17 - - - - - Partly cloudy - 9.6 - 0.0
28/01:30am SW 13 18 - - - - - Partly cloudy - 10.1 - 0.0
28/01:00am SW 13 18 - - - - - Partly cloudy - 10.6 - 0.0
28/12:30am SW 12 17 - - - - - Partly cloudy - 10.5 - 0.0
28/12:00am SW 12 17 - - - - - - - 10.6 - 0.0
 
Date/Time
EST
Wind Sea
Height
m
Swell Vis
km
Cloud Weather Temp
°C
Press
MSL
hPa
Rain since
9am
mm
Dir  Spd
kts
Gust
kts
Height
m
Period
s
Dir
27/11:30pm SW 12 18 - - - - - Partly cloudy - 10.9 - 0.0
27/11:00pm SW 12 17 - - - - - Partly cloudy - 11.1 - 0.0
27/10:30pm SW 14 19 - - - - - Partly cloudy - 11.3 - 0.0
27/10:00pm SW 13 17 - - - - - - - 11.2 - 0.0
27/09:30pm SW 12 16 - - - - - - - 11.3 - 0.0
27/09:00pm SW 14 19 - - - - - - - 11.5 - 0.0
27/08:30pm SW 14 20 - - - - - Partly cloudy - 11.6 - 0.0
27/08:00pm SW 15 21 - - - - - - - 11.8 - 0.0
27/07:30pm SW 13 18 - - - - - Partly cloudy - 11.8 - 0.0
27/07:00pm WSW 11 14 - - - - - Partly cloudy - 11.7 - 0.0
27/06:30pm SW 12 17 - - - - - Partly cloudy - 11.6 - 0.0
27/06:00pm SW 10 13 - - - - - Mostly clear - 11.5 - 0.0
27/05:30pm SW 11 17 - - - - - - - 11.8 - 0.0
27/05:00pm SSW 16 24 - - - - - - - 12.5 - 0.0
27/04:30pm SSW 22 30 - - - - - - - 13.3 - 0.0
27/04:00pm SSW 22 29 - - - - - - - 13.5 - 0.0
27/03:30pm SSW 22 29 - - - - - - - 13.7 - 0.0
27/03:10pm SSW 22 33 - - - - - - - 13.7 - 0.0
27/03:00pm SSW 23 30 - - - - - Mostly clear - 13.7 - 0.0
27/02:30pm S 26 33 - - - - - - - 13.9 - 0.0
27/02:00pm SSW 26 31 - - - - - Cloudy - 13.3 - 0.0
27/01:30pm SSW 23 30 - - - - - Cloudy - 13.6 - 0.0
27/01:00pm S 24 31 - - - - - Partly cloudy - 14.0 - 0.0
27/12:30pm SSW 24 29 - - - - - Partly cloudy - 14.2 - 0.0
27/12:00pm S 25 31 - - - - - Mostly clear - 14.2 - 0.0
27/11:42am SSW 19 29 - - - - - Partly cloudy - 14.5 - 0.0
27/11:30am SSW 19 26 - - - - - Partly cloudy - 14.0 - 0.0
27/11:00am SSW 19 25 - - - - - - - 14.6 - 0.0
27/10:30am SSW 19 28 - - - - - Partly cloudy - 14.3 - 0.0
27/10:00am SW 14 20 - - - - - Partly cloudy - 14.2 - 0.0
27/09:30am SW 12 17 - - - - - - - 13.5 - 0.0
27/09:00am SW 12 18 - - - - - - - 13.1 - 0.0
27/08:30am SW 13 18 - - - - - - - 12.6 - 0.0
27/08:00am SW 12 15 - - - - - - - 11.9 - 0.0
27/07:30am SW 11 17 - - - - - - - 11.6 - 0.0
27/07:00am SW 11 15 - - - - - - - 11.0 - 0.0
27/06:30am SW 11 16 - - - - - - - 11.2 - 0.0
27/06:00am SW 11 14 - - - - - Mostly clear - 11.4 - 0.0
27/05:30am SW 9 12 - - - - - - - 11.6 - 0.0
27/05:00am WSW 8 11 - - - - - - - 11.8 - 0.0
27/04:30am WSW 9 13 - - - - - - - 11.9 - 0.0
27/04:00am WSW 9 13 - - - - - - - 12.0 - 0.0
27/03:30am W 10 15 - - - - - Partly cloudy - 12.1 - 0.0
27/03:00am WSW 10 15 - - - - - Mostly clear - 12.3 - 0.0
27/02:30am WSW 8 14 - - - - - Partly cloudy - 12.1 - 0.0
27/02:00am W 11 15 - - - - - - - 12.7 - 0.0
27/01:30am W 10 17 - - - - - - - 13.0 - 0.0
27/01:00am W 8 14 - - - - - - - 13.2 - 0.0
27/12:30am W 9 13 - - - - - - - 13.3 - 0.0
27/12:00am W 10 14 - - - - - Cloudy - 13.5 - 0.0
 
Date/Time
EST
Wind Sea
Height
m
Swell Vis
km
Cloud Weather Temp
°C
Press
MSL
hPa
Rain since
9am
mm
Dir  Spd
kts
Gust
kts
Height
m
Period
s
Dir
26/11:30pm W 11 16 - - - - - - - 13.6 - 0.0
26/11:00pm WSW 8 15 - - - - - - - 13.7 - 0.0
26/10:30pm WSW 5 8 - - - - - - - 13.7 - 0.0
26/10:00pm SW 8 11 - - - - - - - 13.7 - 0.0
26/09:30pm SW 5 8 - - - - - - - 13.9 - 0.0
26/09:00pm SW 8 9 - - - - - Cloudy - 13.9 - 0.0
26/08:30pm SW 7 8 - - - - - - - 14.1 - 0.0
26/08:00pm WSW 7 10 - - - - - - - 14.7 - 0.0
26/07:30pm WSW 7 11 - - - - - - - 15.3 - 0.0
26/07:00pm W 7 10 - - - - - - - 15.1 - 0.0
26/06:30pm WNW 5 7 - - - - - - - 15.4 - 0.0
26/06:00pm W 6 9 - - - - - Mostly cloudy - 15.7 - 0.0
26/05:30pm WNW 7 10 - - - - - Partly cloudy - 15.8 - 0.0
26/05:00pm W 5 6 - - - - - Partly cloudy - 15.9 - 0.0
26/04:30pm WNW 5 6 - - - - - Cloudy - 16.7 - 0.0
26/04:00pm CALM 0 2 - - - - - Cloudy - 17.4 - 0.0
26/03:30pm SE 5 7 - - - - - Cloudy - 17.4 - 0.0
26/03:00pm SSE 8 11 - - - - - Cloudy - 17.5 - 0.0
26/02:30pm SSE 5 6 - - - - - Partly cloudy - 17.8 - 0.0
26/02:00pm S 9 12 - - - - - Partly cloudy - 17.7 - 0.0
26/01:30pm WSW 9 13 - - - - - Partly cloudy - 18.5 - 0.0
26/01:00pm WNW 8 12 - - - - - Partly cloudy - 18.9 - 0.0
26/12:30pm W 7 11 - - - - - Partly cloudy - 18.4 - 0.0
26/12:00pm WNW 3 7 - - - - - Mostly clear - 18.3 - 0.0
26/11:30am NNE 5 8 - - - - - Partly cloudy - 18.0 - 0.0
26/11:00am NNE 5 9 - - - - - Partly cloudy - 18.5 - 0.0
26/10:30am NE 3 5 - - - - - - - 17.6 - 0.0
26/10:00am NNW 6 7 - - - - - - - 17.3 - 0.0
26/09:30am N 7 8 - - - - - - - 16.1 - 0.0
26/09:00am NW 8 10 - - - - - - - 15.2 - 0.0
26/08:30am NNW 8 12 - - - - - - - 14.2 - 0.0
26/08:00am NW 7 9 - - - - - - - 12.5 - 0.0
26/07:30am WNW 5 7 - - - - - - - 11.2 - 0.0
26/07:00am NW 5 7 - - - - - - - 10.7 - 0.0
26/06:30am NW 5 8 - - - - - - - 11.0 - 0.0
26/06:00am WNW 6 8 - - - - - - - 12.7 - 0.0
26/05:30am W 5 8 - - - - - - - 12.5 - 0.0
26/05:00am W 7 9 - - - - - - - 11.6 - 0.0
26/04:30am W 8 11 - - - - - - - 11.5 - 0.0
26/04:00am W 7 9 - - - - - - - 11.6 - 0.0
26/03:30am W 7 10 - - - - - - - 11.7 - 0.0
26/03:00am NW 6 9 - - - - - - - 12.8 - 0.0
26/02:30am W 5 7 - - - - - - - 12.3 - 0.0
26/02:00am WSW 3 6 - - - - - - - 12.9 - 0.0
26/01:30am WNW 5 10 - - - - - - - 13.2 - 0.0
26/01:00am SSE 3 7 - - - - - - - 12.7 - 0.0
26/12:30am S 6 9 - - - - - - - 13.1 - 0.0
26/12:00am WSW 4 7 - - - - - - - 13.0 - 0.0
 
Date/Time
EST
Wind Sea
Height
m
Swell Vis
km
Cloud Weather Temp
°C
Press
MSL
hPa
Rain since
9am
mm
Dir  Spd
kts
Gust
kts
Height
m
Period
s
Dir
25/11:30pm WSW 6 10 - - - - - - - 12.9 - 0.0
25/11:00pm SW 6 9 - - - - - - - 12.6 - 0.0
25/10:30pm WNW 3 7 - - - - - - - 13.7 - 0.0
25/10:00pm W 6 9 - - - - - - - 13.6 - 0.0
25/09:30pm W 6 9 - - - - - - - 13.3 - 0.0
25/09:00pm NW 1 4 - - - - - - - 13.7 - 0.0
25/08:30pm SSW 4 6 - - - - - - - 13.7 - 0.0
25/08:00pm WSW 5 6 - - - - - - - 13.8 - 0.0
25/07:30pm W 6 7 - - - - - - - 14.2 - 0.0
25/07:00pm WNW 6 8 - - - - - - - 13.3 - 0.0
25/06:30pm WNW 4 5 - - - - - - - 13.9 - 0.0
25/06:00pm W 5 6 - - - - - - - 14.9 - 0.0
25/05:30pm W 5 7 - - - - - - - 15.8 - 0.0
25/05:00pm W 6 11 - - - - - - - 16.5 - 0.0
25/04:30pm SW 3 5 - - - - - - - 17.7 - 0.0
25/04:00pm SW 2 8 - - - - - - - 18.5 - 0.0
25/03:30pm W 9 14 - - - - - - - 18.9 - 0.0
25/03:00pm W 11 17 - - - - - - - 18.9 - 0.0
25/02:30pm W 13 18 - - - - - - - 19.5 - 0.0
25/02:00pm W 13 20 - - - - - - - 19.5 - 0.0
25/01:30pm WSW 10 16 - - - - - Partly cloudy - 19.5 - 0.0
25/01:00pm WNW 11 18 - - - - - Partly cloudy - 20.0 - 0.0
25/12:30pm WSW 9 17 - - - - - Partly cloudy - 19.0 - 0.0
25/12:00pm WNW 9 15 - - - - - Mostly clear - 19.3 - 0.0
25/11:30am NW 7 10 - - - - - - - 18.9 - 0.0
25/11:00am NW 6 12 - - - - - - - 18.7 - 0.0
25/10:30am WNW 7 12 - - - - - - - 18.2 - 0.0
25/10:00am WNW 5 10 - - - - - - - 17.4 - 0.0
25/09:30am NW 8 15 - - - - - - - 16.8 - 0.0
25/09:00am WNW 3 6 - - - - - - - 16.2 - 0.0
25/08:30am SSW 6 8 - - - - - - - 15.1 - 0.0
25/08:00am SW 3 6 - - - - - - - 14.4 - 0.0
25/07:30am WSW 5 6 - - - - - - - 13.6 - 0.0
25/07:00am SW 7 10 - - - - - - - 13.8 - 0.0
25/06:30am CALM 0 1 - - - - - - - 13.1 - 0.0
25/06:00am NW 4 5 - - - - - Cloudy - 13.1 - 0.0
25/05:30am W 4 7 - - - - - - - 13.1 - 0.0
25/05:00am WNW 5 9 - - - - - - - 13.5 - 0.0
25/04:30am WNW 4 6 - - - - - - - 13.2 - 0.0

Other formats

Comma delimited format used in spreadsheet applications
http://www.bom.gov.au/fwo/IDN60701/IDN60701.94749.axf

JavaScript Object Notation format (JSON) in row-major order
http://www.bom.gov.au/fwo/IDN60701/IDN60701.94749.json

Data quality

Most of these data are generated automatically and are frequently updated. Quality checks on data are not normally performed. It is possible for incorrect values to appear. Refer to information at About Latest Weather Observations and please check the disclaimer before using these data.